IGO719 VICG-VISR
Flight info
| Callsign | IGO719 |
|---|---|
| Flight time | 0h 49m |
| Altitude | 35000 |
| Route | IDSUL W36 ANPOL W24 PKT/N0427F340 W24 MESAR |
| Aircraft | A20N/M-SDE2E3FGHIRWXY/LB1 |
Departure
| Time | 2026-04-24 05:37 |
|---|---|
| Airport | Shaheed Bhagat Singh International Airport (VICG) |
Arrival
| Time | 2026-04-24 06:26 |
|---|---|
| Airport | Sheikh ul Alam International Airport (VISR) |
| Time | Latitude | Longitude | Altitude | Speed | Heading |
|---|---|---|---|---|---|
| 2026-04-24 05:24 | 30.66972 | 76.78677 | 1028 ft | 0 kts | 206° |
| 2026-04-24 05:26 | 30.66981 | 76.78682 | 1027 ft | 2 kts | 202° |
| 2026-04-24 05:27 | 30.66997 | 76.78689 | 1027 ft | 2 kts | 202° |
| 2026-04-24 05:27 | 30.67012 | 76.78696 | 1028 ft | 2 kts | 198° |
| 2026-04-24 05:27 | 30.67028 | 76.78701 | 1027 ft | 2 kts | 189° |
| 2026-04-24 05:27 | 30.67045 | 76.78702 | 1028 ft | 2 kts | 165° |
| 2026-04-24 05:28 | 30.67058 | 76.78693 | 1029 ft | 2 kts | 120° |
| 2026-04-24 05:28 | 30.67062 | 76.78685 | 1029 ft | 0 kts | 114° |
| 2026-04-24 05:30 | 30.67061 | 76.78687 | 1029 ft | 2 kts | 114° |
| 2026-04-24 05:31 | 30.67050 | 76.78716 | 1028 ft | 6 kts | 114° |
| 2026-04-24 05:31 | 30.67027 | 76.78775 | 1026 ft | 10 kts | 114° |
| 2026-04-24 05:31 | 30.66998 | 76.78838 | 1026 ft | 7 kts | 130° |
| 2026-04-24 05:31 | 30.66945 | 76.78879 | 1027 ft | 11 kts | 142° |
| 2026-04-24 05:32 | 30.66909 | 76.78967 | 1025 ft | 14 kts | 111° |
| 2026-04-24 05:32 | 30.66865 | 76.79079 | 1025 ft | 16 kts | 113° |
| 2026-04-24 05:32 | 30.66857 | 76.79166 | 1025 ft | 9 kts | 46° |
| 2026-04-24 05:32 | 30.66922 | 76.79203 | 1025 ft | 12 kts | 21° |
| 2026-04-24 05:33 | 30.66999 | 76.79241 | 1024 ft | 9 kts | 24° |
| 2026-04-24 05:33 | 30.67067 | 76.79277 | 1023 ft | 12 kts | 25° |
| 2026-04-24 05:33 | 30.67144 | 76.79321 | 1022 ft | 9 kts | 40° |
| 2026-04-24 05:34 | 30.67104 | 76.79494 | 1023 ft | 15 kts | 114° |
| 2026-04-24 05:34 | 30.67058 | 76.79613 | 1023 ft | 17 kts | 114° |
| 2026-04-24 05:34 | 30.67004 | 76.79747 | 1023 ft | 20 kts | 115° |
| 2026-04-24 05:34 | 30.66945 | 76.79903 | 1021 ft | 21 kts | 113° |
| 2026-04-24 05:35 | 30.66891 | 76.79988 | 1020 ft | 14 kts | 148° |
| 2026-04-24 05:35 | 30.66816 | 76.80062 | 1019 ft | 16 kts | 110° |
| 2026-04-24 05:35 | 30.66868 | 76.80112 | 1018 ft | 12 kts | 321° |
| 2026-04-24 05:35 | 30.66887 | 76.80056 | 1019 ft | 0 kts | 294° |
| 2026-04-24 05:36 | 30.66902 | 76.80016 | 1020 ft | 31 kts | 293° |
| 2026-04-24 05:36 | 30.67122 | 76.79456 | 1024 ft | 119 kts | 294° |
| 2026-04-24 05:36 | 30.67557 | 76.78332 | 1098 ft | 180 kts | 294° |
| 2026-04-24 05:37 | 30.68075 | 76.76937 | 1738 ft | 198 kts | 292° |
| 2026-04-24 05:37 | 30.68527 | 76.75386 | 2603 ft | 204 kts | 284° |
| 2026-04-24 05:37 | 30.68846 | 76.73776 | 3454 ft | 205 kts | 283° |
| 2026-04-24 05:37 | 30.69215 | 76.72160 | 4156 ft | 209 kts | 285° |
| 2026-04-24 05:38 | 30.69637 | 76.70555 | 4758 ft | 210 kts | 290° |
| 2026-04-24 05:38 | 30.70184 | 76.69260 | 5227 ft | 211 kts | 303° |
| 2026-04-24 05:38 | 30.71147 | 76.67859 | 5537 ft | 238 kts | 309° |
| 2026-04-24 05:38 | 30.72120 | 76.66109 | 5293 ft | 272 kts | 297° |
| 2026-04-24 05:39 | 30.72883 | 76.64081 | 5155 ft | 275 kts | 291° |
| 2026-04-24 05:39 | 30.73554 | 76.61996 | 5382 ft | 276 kts | 291° |
| 2026-04-24 05:39 | 30.74220 | 76.59902 | 6087 ft | 277 kts | 291° |
| 2026-04-24 05:39 | 30.74903 | 76.57811 | 7013 ft | 277 kts | 292° |
| 2026-04-24 05:40 | 30.75606 | 76.55710 | 7852 ft | 281 kts | 292° |
| 2026-04-24 05:40 | 30.76329 | 76.53580 | 8694 ft | 284 kts | 292° |
| 2026-04-24 05:40 | 30.77064 | 76.51429 | 9546 ft | 288 kts | 292° |
| 2026-04-24 05:40 | 30.77809 | 76.49253 | 10294 ft | 294 kts | 292° |
| 2026-04-24 05:41 | 30.78591 | 76.46968 | 10612 ft | 316 kts | 292° |
| 2026-04-24 05:41 | 30.79435 | 76.44502 | 10858 ft | 338 kts | 292° |
| 2026-04-24 05:41 | 30.80312 | 76.41932 | 11492 ft | 344 kts | 292° |
| 2026-04-24 05:41 | 30.81197 | 76.39330 | 12282 ft | 347 kts | 292° |
| 2026-04-24 05:42 | 30.82090 | 76.36706 | 13053 ft | 351 kts | 292° |
| 2026-04-24 05:42 | 30.82992 | 76.34053 | 13798 ft | 355 kts | 292° |
| 2026-04-24 05:42 | 30.83901 | 76.31382 | 14499 ft | 357 kts | 292° |
| 2026-04-24 05:42 | 30.84809 | 76.28710 | 15203 ft | 360 kts | 292° |
| 2026-04-24 05:43 | 30.85430 | 76.26878 | 15677 ft | 362 kts | 292° |
| 2026-04-24 05:43 | 30.86671 | 76.23199 | 16581 ft | 367 kts | 291° |
| 2026-04-24 05:43 | 30.87606 | 76.20419 | 17240 ft | 370 kts | 291° |
| 2026-04-24 05:43 | 30.88547 | 76.17622 | 17914 ft | 374 kts | 291° |
| 2026-04-24 05:44 | 30.89488 | 76.14823 | 18514 ft | 377 kts | 291° |
| 2026-04-24 05:44 | 30.90448 | 76.11966 | 19107 ft | 379 kts | 291° |
| 2026-04-24 05:44 | 30.91410 | 76.09102 | 19706 ft | 382 kts | 291° |
| 2026-04-24 05:44 | 30.92381 | 76.06207 | 20285 ft | 385 kts | 291° |
| 2026-04-24 05:45 | 30.93359 | 76.03287 | 20876 ft | 388 kts | 291° |
| 2026-04-24 05:45 | 30.94345 | 76.00345 | 21464 ft | 390 kts | 291° |
| 2026-04-24 05:45 | 30.95334 | 75.97388 | 22046 ft | 393 kts | 291° |
| 2026-04-24 05:45 | 30.96331 | 75.94405 | 22619 ft | 396 kts | 291° |
| 2026-04-24 05:46 | 30.97334 | 75.91399 | 23201 ft | 399 kts | 291° |
| 2026-04-24 05:46 | 30.98343 | 75.88376 | 23712 ft | 402 kts | 291° |
| 2026-04-24 05:46 | 30.99361 | 75.85320 | 24172 ft | 406 kts | 291° |
| 2026-04-24 05:46 | 31.00387 | 75.82239 | 24602 ft | 409 kts | 291° |
| 2026-04-24 05:47 | 31.01423 | 75.79126 | 25049 ft | 413 kts | 291° |
| 2026-04-24 05:47 | 31.02450 | 75.76036 | 25485 ft | 416 kts | 291° |
| 2026-04-24 05:47 | 31.03497 | 75.72882 | 25913 ft | 420 kts | 292° |
| 2026-04-24 05:47 | 31.04555 | 75.69692 | 26354 ft | 423 kts | 292° |
| 2026-04-24 05:48 | 31.05588 | 75.66580 | 26780 ft | 427 kts | 292° |
| 2026-04-24 05:48 | 31.06664 | 75.63333 | 27168 ft | 430 kts | 292° |
| 2026-04-24 05:48 | 31.07743 | 75.60069 | 27575 ft | 433 kts | 292° |
| 2026-04-24 05:48 | 31.08832 | 75.56770 | 27953 ft | 437 kts | 292° |
| 2026-04-24 05:49 | 31.09925 | 75.53460 | 28319 ft | 440 kts | 292° |
| 2026-04-24 05:49 | 31.11229 | 75.50210 | 28674 ft | 442 kts | 300° |
| 2026-04-24 05:49 | 31.12911 | 75.47209 | 29028 ft | 444 kts | 308° |
| 2026-04-24 05:49 | 31.14949 | 75.44484 | 29378 ft | 446 kts | 316° |
| 2026-04-24 05:50 | 31.17187 | 75.41964 | 29709 ft | 449 kts | 316° |
| 2026-04-24 05:50 | 31.19432 | 75.39430 | 30036 ft | 451 kts | 316° |
| 2026-04-24 05:50 | 31.21756 | 75.36948 | 30346 ft | 453 kts | 323° |
| 2026-04-24 05:50 | 31.24430 | 75.34995 | 30643 ft | 455 kts | 334° |
| 2026-04-24 05:51 | 31.27398 | 75.33721 | 30953 ft | 457 kts | 346° |
| 2026-04-24 05:51 | 31.30538 | 75.33180 | 31306 ft | 458 kts | 357° |
| 2026-04-24 05:51 | 31.33723 | 75.33398 | 31694 ft | 458 kts | 9° |
| 2026-04-24 05:51 | 31.36786 | 75.34286 | 32088 ft | 459 kts | 15° |
| 2026-04-24 05:52 | 31.39848 | 75.35303 | 32451 ft | 458 kts | 15° |
| 2026-04-24 05:52 | 31.42922 | 75.36320 | 32826 ft | 458 kts | 15° |
| 2026-04-24 05:52 | 31.45985 | 75.37330 | 33189 ft | 458 kts | 15° |
| 2026-04-24 05:52 | 31.49058 | 75.38344 | 33556 ft | 457 kts | 15° |
| 2026-04-24 05:53 | 31.52130 | 75.39357 | 33895 ft | 457 kts | 15° |
| 2026-04-24 05:53 | 31.55200 | 75.40371 | 34186 ft | 457 kts | 14° |
| 2026-04-24 05:53 | 31.58258 | 75.41381 | 34482 ft | 457 kts | 14° |
| 2026-04-24 05:53 | 31.61247 | 75.42369 | 34723 ft | 457 kts | 14° |
| 2026-04-24 05:54 | 31.67280 | 75.44366 | 34809 ft | 455 kts | 14° |
| 2026-04-24 05:54 | 31.73383 | 75.46388 | 34809 ft | 455 kts | 14° |
| 2026-04-24 05:55 | 31.79473 | 75.48408 | 34807 ft | 455 kts | 14° |
| 2026-04-24 05:55 | 31.85586 | 75.50440 | 34814 ft | 455 kts | 14° |
| 2026-04-24 05:56 | 31.91691 | 75.52508 | 34813 ft | 456 kts | 15° |
| 2026-04-24 05:56 | 31.97755 | 75.54672 | 34810 ft | 456 kts | 15° |
| 2026-04-24 05:57 | 32.03835 | 75.56837 | 34823 ft | 456 kts | 14° |
| 2026-04-24 05:57 | 32.09893 | 75.58985 | 34823 ft | 457 kts | 14° |
| 2026-04-24 05:58 | 32.15980 | 75.61144 | 34816 ft | 457 kts | 14° |
| 2026-04-24 05:58 | 32.22192 | 75.62580 | 34822 ft | 453 kts | 359° |
| 2026-04-24 05:59 | 32.28390 | 75.61785 | 34815 ft | 447 kts | 342° |
| 2026-04-24 05:59 | 32.34405 | 75.59882 | 34834 ft | 447 kts | 343° |
| 2026-04-24 06:00 | 32.40428 | 75.57999 | 34840 ft | 448 kts | 342° |
| 2026-04-24 06:00 | 32.46428 | 75.56114 | 34857 ft | 448 kts | 342° |
| 2026-04-24 06:01 | 32.52460 | 75.54215 | 34873 ft | 449 kts | 342° |
| 2026-04-24 06:01 | 32.58527 | 75.52302 | 34891 ft | 450 kts | 342° |
| 2026-04-24 06:02 | 32.63543 | 75.50718 | 34906 ft | 447 kts | 342° |
| 2026-04-24 06:02 | 32.67512 | 75.49463 | 34479 ft | 443 kts | 342° |
| 2026-04-24 06:02 | 32.69533 | 75.48823 | 34070 ft | 444 kts | 342° |
| 2026-04-24 06:03 | 32.73484 | 75.47569 | 33091 ft | 445 kts | 342° |
| 2026-04-24 06:03 | 32.75475 | 75.46938 | 32594 ft | 445 kts | 343° |
| 2026-04-24 06:03 | 32.78469 | 75.45994 | 31844 ft | 445 kts | 342° |
| 2026-04-24 06:03 | 32.81472 | 75.45046 | 31083 ft | 446 kts | 342° |
| 2026-04-24 06:04 | 32.84478 | 75.44098 | 30317 ft | 447 kts | 342° |
| 2026-04-24 06:04 | 32.87475 | 75.43151 | 29656 ft | 444 kts | 342° |
| 2026-04-24 06:04 | 32.90445 | 75.42211 | 29011 ft | 440 kts | 342° |
| 2026-04-24 06:04 | 32.93395 | 75.41276 | 28373 ft | 436 kts | 342° |
| 2026-04-24 06:05 | 32.96309 | 75.40351 | 27754 ft | 432 kts | 342° |
| 2026-04-24 06:05 | 32.99205 | 75.39431 | 27156 ft | 428 kts | 342° |
| 2026-04-24 06:05 | 33.02077 | 75.38519 | 26547 ft | 425 kts | 342° |
| 2026-04-24 06:05 | 33.04931 | 75.37612 | 25987 ft | 422 kts | 342° |
| 2026-04-24 06:06 | 33.07753 | 75.36715 | 25425 ft | 418 kts | 342° |
| 2026-04-24 06:06 | 33.10559 | 75.35822 | 24868 ft | 416 kts | 342° |
| 2026-04-24 06:06 | 33.13347 | 75.34933 | 24333 ft | 413 kts | 341° |
| 2026-04-24 06:06 | 33.16113 | 75.34053 | 23790 ft | 410 kts | 341° |
| 2026-04-24 06:07 | 33.18858 | 75.33177 | 23165 ft | 408 kts | 342° |
| 2026-04-24 06:07 | 33.21587 | 75.32306 | 22571 ft | 404 kts | 342° |
| 2026-04-24 06:07 | 33.24298 | 75.31440 | 21985 ft | 401 kts | 342° |
| 2026-04-24 06:07 | 33.26987 | 75.30581 | 21428 ft | 398 kts | 342° |
| 2026-04-24 06:08 | 33.29644 | 75.29732 | 20862 ft | 395 kts | 342° |
| 2026-04-24 06:08 | 33.32267 | 75.28892 | 20295 ft | 393 kts | 342° |
| 2026-04-24 06:08 | 33.34900 | 75.28048 | 19792 ft | 389 kts | 343° |
| 2026-04-24 06:08 | 33.37497 | 75.27215 | 19273 ft | 387 kts | 343° |
| 2026-04-24 06:09 | 33.40092 | 75.26384 | 18757 ft | 384 kts | 343° |
| 2026-04-24 06:09 | 33.42666 | 75.25556 | 18220 ft | 382 kts | 343° |
| 2026-04-24 06:09 | 33.45226 | 75.24733 | 17693 ft | 379 kts | 343° |
| 2026-04-24 06:09 | 33.47765 | 75.23920 | 17135 ft | 376 kts | 343° |
| 2026-04-24 06:10 | 33.50237 | 75.22962 | 16608 ft | 372 kts | 336° |
| 2026-04-24 06:10 | 33.52572 | 75.21630 | 16041 ft | 370 kts | 331° |
| 2026-04-24 06:10 | 33.54845 | 75.20227 | 15522 ft | 367 kts | 332° |
| 2026-04-24 06:11 | 33.59377 | 75.17467 | 14484 ft | 363 kts | 332° |
| 2026-04-24 06:11 | 33.61519 | 75.15943 | 13954 ft | 361 kts | 324° |
| 2026-04-24 06:11 | 33.63474 | 75.14061 | 13390 ft | 358 kts | 318° |
| 2026-04-24 06:11 | 33.65206 | 75.12255 | 13212 ft | 344 kts | 318° |
| 2026-04-24 06:12 | 33.66944 | 75.10445 | 13048 ft | 320 kts | 318° |
| 2026-04-24 06:12 | 33.67848 | 75.09515 | 12998 ft | 313 kts | 319° |
| 2026-04-24 06:12 | 33.69474 | 75.07847 | 12882 ft | 301 kts | 319° |
| 2026-04-24 06:12 | 33.71035 | 75.06245 | 12770 ft | 289 kts | 318° |
| 2026-04-24 06:13 | 33.72532 | 75.04704 | 12612 ft | 279 kts | 318° |
| 2026-04-24 06:13 | 33.73992 | 75.03198 | 12306 ft | 274 kts | 318° |
| 2026-04-24 06:13 | 33.75406 | 75.01740 | 12190 ft | 260 kts | 318° |
| 2026-04-24 06:13 | 33.76657 | 75.00442 | 12120 ft | 247 kts | 317° |
| 2026-04-24 06:14 | 33.77853 | 74.99162 | 12154 ft | 217 kts | 316° |
| 2026-04-24 06:14 | 33.78968 | 74.97922 | 12217 ft | 216 kts | 315° |
| 2026-04-24 06:14 | 33.80017 | 74.96697 | 12324 ft | 201 kts | 313° |
| 2026-04-24 06:14 | 33.80934 | 74.95557 | 12388 ft | 182 kts | 311° |
| 2026-04-24 06:15 | 33.81794 | 74.94388 | 12540 ft | 190 kts | 303° |
| 2026-04-24 06:15 | 33.82220 | 74.92924 | 12701 ft | 191 kts | 275° |
| 2026-04-24 06:15 | 33.82361 | 74.91261 | 12770 ft | 203 kts | 274° |
| 2026-04-24 06:15 | 33.82208 | 74.89594 | 12732 ft | 200 kts | 247° |
| 2026-04-24 06:16 | 33.81570 | 74.88154 | 12652 ft | 192 kts | 226° |
| 2026-04-24 06:16 | 33.80454 | 74.87396 | 12381 ft | 190 kts | 191° |
| 2026-04-24 06:16 | 33.79142 | 74.87183 | 12050 ft | 191 kts | 186° |
| 2026-04-24 06:16 | 33.77825 | 74.87075 | 11793 ft | 190 kts | 173° |
| 2026-04-24 06:17 | 33.76591 | 74.87641 | 11463 ft | 191 kts | 153° |
| 2026-04-24 06:17 | 33.75429 | 74.88396 | 11210 ft | 189 kts | 152° |
| 2026-04-24 06:17 | 33.74335 | 74.89289 | 10981 ft | 190 kts | 140° |
| 2026-04-24 06:17 | 33.73345 | 74.90338 | 10755 ft | 190 kts | 140° |
| 2026-04-24 06:18 | 33.72369 | 74.91393 | 10514 ft | 190 kts | 135° |
| 2026-04-24 06:18 | 33.71636 | 74.92710 | 10268 ft | 189 kts | 121° |
| 2026-04-24 06:18 | 33.71005 | 74.94077 | 9936 ft | 189 kts | 120° |
| 2026-04-24 06:18 | 33.70634 | 74.95577 | 9562 ft | 191 kts | 88° |
| 2026-04-24 06:19 | 33.71116 | 74.97046 | 9228 ft | 193 kts | 48° |
| 2026-04-24 06:19 | 33.72253 | 74.97826 | 8891 ft | 194 kts | 8° |
| 2026-04-24 06:19 | 33.73568 | 74.97621 | 8628 ft | 192 kts | 339° |
| 2026-04-24 06:19 | 33.74815 | 74.97081 | 8374 ft | 189 kts | 338° |
| 2026-04-24 06:20 | 33.76053 | 74.96545 | 8118 ft | 189 kts | 343° |
| 2026-04-24 06:20 | 33.77327 | 74.96208 | 7862 ft | 186 kts | 348° |
| 2026-04-24 06:20 | 33.78581 | 74.95920 | 7647 ft | 183 kts | 348° |
| 2026-04-24 06:20 | 33.79842 | 74.95631 | 7630 ft | 185 kts | 348° |
| 2026-04-24 06:21 | 33.81104 | 74.95324 | 7630 ft | 185 kts | 342° |
| 2026-04-24 06:21 | 33.82169 | 74.94514 | 7644 ft | 185 kts | 319° |
| 2026-04-24 06:21 | 33.83173 | 74.93533 | 7644 ft | 185 kts | 320° |
| 2026-04-24 06:21 | 33.84175 | 74.92565 | 7645 ft | 184 kts | 320° |
| 2026-04-24 06:22 | 33.85167 | 74.91580 | 7645 ft | 185 kts | 319° |
| 2026-04-24 06:22 | 33.86144 | 74.90585 | 7644 ft | 185 kts | 319° |
| 2026-04-24 06:22 | 33.87120 | 74.89577 | 7653 ft | 185 kts | 319° |
| 2026-04-24 06:22 | 33.88095 | 74.88565 | 7653 ft | 185 kts | 319° |
| 2026-04-24 06:23 | 33.89070 | 74.87560 | 7646 ft | 184 kts | 319° |
| 2026-04-24 06:23 | 33.90048 | 74.86547 | 7655 ft | 185 kts | 319° |
| 2026-04-24 06:23 | 33.91024 | 74.85534 | 7362 ft | 188 kts | 319° |
| 2026-04-24 06:23 | 33.92014 | 74.84542 | 6964 ft | 182 kts | 320° |
| 2026-04-24 06:24 | 33.92959 | 74.83565 | 6633 ft | 180 kts | 319° |
| 2026-04-24 06:24 | 33.93880 | 74.82595 | 6714 ft | 179 kts | 318° |
| 2026-04-24 06:24 | 33.94856 | 74.81585 | 6412 ft | 187 kts | 321° |
| 2026-04-24 06:24 | 33.95815 | 74.80657 | 6083 ft | 171 kts | 318° |
| 2026-04-24 06:25 | 33.96739 | 74.79678 | 5943 ft | 179 kts | 319° |
| 2026-04-24 06:25 | 33.97644 | 74.78639 | 5652 ft | 180 kts | 316° |
| 2026-04-24 06:25 | 33.98515 | 74.77621 | 5588 ft | 163 kts | 315° |
| 2026-04-24 06:25 | 33.99210 | 74.76808 | 5577 ft | 107 kts | 316° |
| 2026-04-24 06:26 | 33.99473 | 74.76510 | 5580 ft | 33 kts | 317° |
| 2026-04-24 06:26 | 33.99628 | 74.76303 | 5578 ft | 33 kts | 320° |
| 2026-04-24 06:26 | 33.99773 | 74.76150 | 5576 ft | 19 kts | 318° |
| 2026-04-24 06:26 | 33.99884 | 74.76157 | 5585 ft | 13 kts | 15° |
| 2026-04-24 06:27 | 33.99953 | 74.76172 | 5593 ft | 8 kts | 12° |
| 2026-04-24 06:27 | 34.00003 | 74.76189 | 5593 ft | 7 kts | 22° |
| 2026-04-24 06:27 | 34.00046 | 74.76203 | 5596 ft | 6 kts | 2° |
| 2026-04-24 06:27 | 34.00084 | 74.76211 | 5596 ft | 3 kts | 12° |
| 2026-04-24 06:28 | 34.00099 | 74.76215 | 5597 ft | 1 kts | 12° |
| 2026-04-24 06:28 | 34.00101 | 74.76215 | 5597 ft | 0 kts | 12° |